Startpagina
METAR-TAF:

METAR-TAF

Vliegvelden :

Ambato, Ecuador

breedte: 01-12-43S, lengte: 078-34-28W, hoogte: 2591 m

Actueel weer

Dit bericht is 58 minuten geleden gemaakt, om 15:00 UTC
Wind 3 kt uit het zuidzuidwesten
Temperatuur 15°C
Vochtigheid 77%
Druk 1031 hPa
Zicht 10 km of meer
Weinig wolken op 600 ft
Gebroken wolken op 2000 ft

METAR: SEAM 151500Z 20003KT 9999 FEW006 BKN020 15/11 Q1031

Tijdstip: 10:58 (15:58 UTC)


TAF: ontbreekt

Waarnemingen en weersverwachtingen van meer dan 4000 vliegvelden (METAR en TAF).

De beschikbare stations zijn de gele en rode punten op de kaart.

Ga met uw muis naar het station om de naam te zien.

Klik dan om waarnemingen en weersverwachtingen te zien.

kaart wijzigen: klik op de groene knoppen met een zwart kruis om in te zoomen, op de groene knop met een streepje om uit te zoomen of op de groene pijlen voor aangrenzende kaarten.


METAR-TAF: